KBRL/BRL METAR and TAF weather

Enter ICAO airport designator
Station Type Date Time Source
KBRL METAR 2019/04/24 21:53 UTC NOAA

KBRL 242153Z AUTO 11006KT 10SM OVC040 15/08 A2987 RMK AO2 SLP113 T01500078


Station Type Date Time Source
KBRL Decoded METAR 2019/04/24 21:53 UTC NOAA

BURLINGTON REGIONAL AIRPORT, IA, United States (KBRL) 40-46N 91-08W 211M
Apr 24, 2019 - 05:53 PM EDT / 2019.04.24 2153 UTC
Wind: from the ESE (110 degrees) at 7 MPH (6 KT):0
Visibility: 10 mile(s):0
Sky conditions: overcast
Temperature: 59.0 F (15.0 C)
Dew Point: 46.0 F (7.8 C)
Relative Humidity: 62%
Pressure (altimeter): 29.87 in. Hg (1011 hPa)
ob: KBRL 242153Z AUTO 11006KT 10SM OVC040 15/08 A2987 RMK AO2 SLP113 T01500078
cycle: 22

Station Type Date Time Source
KBRL TAF 2019/04/24 18:22 UTC NOAA

TAF KBRL 241720Z 2418/2518 13008KT P6SM OVC050
FM242200 VRB03KT P6SM BKN035
FM250300 VRB03KT P6SM BKN015

Example: see airport list